sensor_id;sensor_type;location;lat;lon;timestamp;pressure;altitude;pressure_sealevel;temperature
69364;BMP280;56526;55.406;86.130;2022-09-09T00:05:47;98740.28;;;8.40
69364;BMP280;56526;55.406;86.130;2022-09-09T00:07:49;98743.72;;;8.41
69364;BMP280;56526;55.406;86.130;2022-09-09T00:13:14;98754.03;;;8.37
69364;BMP280;56526;55.406;86.130;2022-09-09T00:21:38;98760.50;;;8.31
69364;BMP280;56526;55.406;86.130;2022-09-09T00:24:32;98761.28;;;8.32
69364;BMP280;56526;55.406;86.130;2022-09-09T00:27:10;98767.78;;;8.34
69364;BMP280;56526;55.406;86.130;2022-09-09T00:29:51;98763.78;;;8.37
69364;BMP280;56526;55.406;86.130;2022-09-09T00:32:20;98772.47;;;8.37
69364;BMP280;56526;55.406;86.130;2022-09-09T00:34:50;98773.78;;;8.40
69364;BMP280;56526;55.406;86.130;2022-09-09T00:37:22;98776.63;;;8.43
69364;BMP280;56526;55.406;86.130;2022-09-09T00:39:53;98782.63;;;8.44
69364;BMP280;56526;55.406;86.130;2022-09-09T00:42:43;98781.09;;;8.43
69364;BMP280;56526;55.406;86.130;2022-09-09T00:47:58;98784.97;;;8.45
69364;BMP280;56526;55.406;86.130;2022-09-09T00:56:12;98792.38;;;8.84
69364;BMP280;56526;55.406;86.130;2022-09-09T00:58:49;98787.97;;;9.97
69364;BMP280;56526;55.406;86.130;2022-09-09T01:01:39;98800.72;;;11.43
69364;BMP280;56526;55.406;86.130;2022-09-09T01:04:16;98793.75;;;12.52
69364;BMP280;56526;55.406;86.130;2022-09-09T01:06:49;98794.66;;;13.40
69364;BMP280;56526;55.406;86.130;2022-09-09T01:12:40;98796.41;;;14.94
69364;BMP280;56526;55.406;86.130;2022-09-09T01:15:22;98798.47;;;15.28
69364;BMP280;56526;55.406;86.130;2022-09-09T01:18:00;98806.25;;;15.21
69364;BMP280;56526;55.406;86.130;2022-09-09T01:20:42;98804.38;;;15.22
69364;BMP280;56526;55.406;86.130;2022-09-09T01:29:02;98811.84;;;15.76
69364;BMP280;56526;55.406;86.130;2022-09-09T01:31:36;98809.03;;;15.84
69364;BMP280;56526;55.406;86.130;2022-09-09T01:34:37;98806.56;;;15.32
69364;BMP280;56526;55.406;86.130;2022-09-09T01:37:07;98803.72;;;14.57
69364;BMP280;56526;55.406;86.130;2022-09-09T01:39:36;98811.63;;;13.93
69364;BMP280;56526;55.406;86.130;2022-09-09T01:42:07;98811.59;;;13.35
69364;BMP280;56526;55.406;86.130;2022-09-09T01:44:36;98808.06;;;12.90
69364;BMP280;56526;55.406;86.130;2022-09-09T01:47:03;98805.31;;;12.57
69364;BMP280;56526;55.406;86.130;2022-09-09T01:49:32;98809.25;;;12.21
69364;BMP280;56526;55.406;86.130;2022-09-09T01:51:59;98809.63;;;11.94
69364;BMP280;56526;55.406;86.130;2022-09-09T01:54:31;98809.41;;;11.69
69364;BMP280;56526;55.406;86.130;2022-09-09T01:59:58;98816.28;;;11.27
69364;BMP280;56526;55.406;86.130;2022-09-09T02:02:44;98817.53;;;11.12
69364;BMP280;56526;55.406;86.130;2022-09-09T02:05:36;98814.41;;;11.02
69364;BMP280;56526;55.406;86.130;2022-09-09T02:08:07;98807.88;;;10.91
69364;BMP280;56526;55.406;86.130;2022-09-09T02:13:14;98820.31;;;10.73
69364;BMP280;56526;55.406;86.130;2022-09-09T02:16:03;98824.66;;;10.69
69364;BMP280;56526;55.406;86.130;2022-09-09T02:18:51;98826.38;;;10.73
69364;BMP280;56526;55.406;86.130;2022-09-09T02:21:19;98826.06;;;10.75
69364;BMP280;56526;55.406;86.130;2022-09-09T02:23:47;98827.28;;;10.69
69364;BMP280;56526;55.406;86.130;2022-09-09T02:26:16;98824.16;;;10.67
69364;BMP280;56526;55.406;86.130;2022-09-09T02:28:43;98832.44;;;10.74
69364;BMP280;56526;55.406;86.130;2022-09-09T02:31:17;98834.66;;;10.80
69364;BMP280;56526;55.406;86.130;2022-09-09T02:33:50;98832.16;;;10.84
69364;BMP280;56526;55.406;86.130;2022-09-09T02:36:23;98827.78;;;10.79
69364;BMP280;56526;55.406;86.130;2022-09-09T02:38:50;98829.50;;;10.84
69364;BMP280;56526;55.406;86.130;2022-09-09T02:41:20;98823.78;;;10.91
69364;BMP280;56526;55.406;86.130;2022-09-09T02:43:50;98826.91;;;11.01
69364;BMP280;56526;55.406;86.130;2022-09-09T02:51:56;98831.41;;;11.35
69364;BMP280;56526;55.406;86.130;2022-09-09T02:54:30;98829.41;;;11.32
69364;BMP280;56526;55.406;86.130;2022-09-09T02:57:04;98838.56;;;11.35
69364;BMP280;56526;55.406;86.130;2022-09-09T02:59:34;98839.03;;;11.37
69364;BMP280;56526;55.406;86.130;2022-09-09T03:02:00;98845.63;;;11.48
69364;BMP280;56526;55.406;86.130;2022-09-09T03:04:27;98850.59;;;11.67
69364;BMP280;56526;55.406;86.130;2022-09-09T03:06:53;98847.16;;;11.66
69364;BMP280;56526;55.406;86.130;2022-09-09T03:09:20;98843.72;;;11.57
69364;BMP280;56526;55.406;86.130;2022-09-09T03:11:46;98848.22;;;11.65
69364;BMP280;56526;55.406;86.130;2022-09-09T03:14:12;98837.59;;;11.82
69364;BMP280;56526;55.406;86.130;2022-09-09T03:16:38;98842.06;;;12.08
69364;BMP280;56526;55.406;86.130;2022-09-09T03:19:05;98842.59;;;12.31
69364;BMP280;56526;55.406;86.130;2022-09-09T03:21:32;98836.66;;;12.63
69364;BMP280;56526;55.406;86.130;2022-09-09T03:23:58;98845.75;;;13.04
69364;BMP280;56526;55.406;86.130;2022-09-09T03:26:25;98849.97;;;13.26
69364;BMP280;56526;55.406;86.130;2022-09-09T03:28:51;98853.59;;;13.42
69364;BMP280;56526;55.406;86.130;2022-09-09T03:31:18;98853.28;;;13.55
69364;BMP280;56526;55.406;86.130;2022-09-09T03:33:44;98857.97;;;13.59
69364;BMP280;56526;55.406;86.130;2022-09-09T03:36:10;98858.84;;;13.63
69364;BMP280;56526;55.406;86.130;2022-09-09T03:38:36;98854.91;;;13.69
69364;BMP280;56526;55.406;86.130;2022-09-09T03:41:03;98861.00;;;13.81
69364;BMP280;56526;55.406;86.130;2022-09-09T03:43:30;98860.59;;;13.92
69364;BMP280;56526;55.406;86.130;2022-09-09T03:45:56;98864.88;;;14.17
69364;BMP280;56526;55.406;86.130;2022-09-09T03:48:23;98878.25;;;14.45
69364;BMP280;56526;55.406;86.130;2022-09-09T03:50:51;98882.91;;;14.84
69364;BMP280;56526;55.406;86.130;2022-09-09T03:53:21;98885.56;;;15.24
69364;BMP280;56526;55.406;86.130;2022-09-09T03:55:53;98886.44;;;16.00
69364;BMP280;56526;55.406;86.130;2022-09-09T03:58:21;98881.72;;;16.44
69364;BMP280;56526;55.406;86.130;2022-09-09T04:01:31;98886.44;;;16.51
69364;BMP280;56526;55.406;86.130;2022-09-09T04:03:50;98884.91;;;16.50
69364;BMP280;56526;55.406;86.130;2022-09-09T04:06:17;98883.53;;;16.24
69364;BMP280;56526;55.406;86.130;2022-09-09T04:08:43;98886.50;;;16.19
69364;BMP280;56526;55.406;86.130;2022-09-09T04:11:09;98890.13;;;15.95
69364;BMP280;56526;55.406;86.130;2022-09-09T04:13:37;98882.44;;;15.78
69364;BMP280;56526;55.406;86.130;2022-09-09T04:16:04;98888.13;;;15.92
69364;BMP280;56526;55.406;86.130;2022-09-09T04:18:31;98888.31;;;15.99
69364;BMP280;56526;55.406;86.130;2022-09-09T04:20:58;98888.53;;;15.79
69364;BMP280;56526;55.406;86.130;2022-09-09T04:23:26;98892.59;;;15.73
69364;BMP280;56526;55.406;86.130;2022-09-09T04:25:54;98892.06;;;15.67
69364;BMP280;56526;55.406;86.130;2022-09-09T04:28:23;98891.94;;;15.63
69364;BMP280;56526;55.406;86.130;2022-09-09T04:30:51;98895.41;;;15.64
69364;BMP280;56526;55.406;86.130;2022-09-09T04:33:18;98895.47;;;15.52
69364;BMP280;56526;55.406;86.130;2022-09-09T04:35:49;98887.50;;;15.40
69364;BMP280;56526;55.406;86.130;2022-09-09T04:38:17;98884.78;;;15.24
69364;BMP280;56526;55.406;86.130;2022-09-09T04:40:44;98896.16;;;15.09
69364;BMP280;56526;55.406;86.130;2022-09-09T04:43:12;98889.78;;;14.85
69364;BMP280;56526;55.406;86.130;2022-09-09T04:45:39;98890.50;;;14.58
69364;BMP280;56526;55.406;86.130;2022-09-09T04:48:06;98888.13;;;14.44
69364;BMP280;56526;55.406;86.130;2022-09-09T04:50:34;98887.69;;;14.30
69364;BMP280;56526;55.406;86.130;2022-09-09T04:53:01;98897.59;;;14.30
69364;BMP280;56526;55.406;86.130;2022-09-09T04:55:29;98897.91;;;14.28
69364;BMP280;56526;55.406;86.130;2022-09-09T04:57:56;98889.03;;;14.36
69364;BMP280;56526;55.406;86.130;2022-09-09T05:00:22;98890.56;;;14.62
69364;BMP280;56526;55.406;86.130;2022-09-09T05:02:49;98889.22;;;15.32
69364;BMP280;56526;55.406;86.130;2022-09-09T05:05:15;98889.34;;;16.11
69364;BMP280;56526;55.406;86.130;2022-09-09T05:07:42;98895.00;;;16.25
69364;BMP280;56526;55.406;86.130;2022-09-09T05:10:11;98891.66;;;16.12
69364;BMP280;56526;55.406;86.130;2022-09-09T05:12:38;98887.59;;;16.02
69364;BMP280;56526;55.406;86.130;2022-09-09T05:15:04;98895.00;;;15.93
69364;BMP280;56526;55.406;86.130;2022-09-09T05:17:31;98895.00;;;15.93
69364;BMP280;56526;55.406;86.130;2022-09-09T05:19:57;98891.22;;;15.79
69364;BMP280;56526;55.406;86.130;2022-09-09T05:22:23;98894.25;;;15.93
69364;BMP280;56526;55.406;86.130;2022-09-09T05:24:50;98891.41;;;16.33
69364;BMP280;56526;55.406;86.130;2022-09-09T05:27:17;98892.34;;;16.95
69364;BMP280;56526;55.406;86.130;2022-09-09T05:29:44;98886.97;;;17.75
69364;BMP280;56526;55.406;86.130;2022-09-09T05:32:11;98877.47;;;18.27
69364;BMP280;56526;55.406;86.130;2022-09-09T05:34:37;98887.28;;;18.72
69364;BMP280;56526;55.406;86.130;2022-09-09T05:37:03;98876.91;;;19.04
69364;BMP280;56526;55.406;86.130;2022-09-09T05:39:30;98876.44;;;19.32
69364;BMP280;56526;55.406;86.130;2022-09-09T05:41:57;98870.09;;;19.10
69364;BMP280;56526;55.406;86.130;2022-09-09T05:44:23;98875.19;;;19.22
69364;BMP280;56526;55.406;86.130;2022-09-09T05:46:49;98868.16;;;19.48
69364;BMP280;56526;55.406;86.130;2022-09-09T05:49:16;98875.88;;;19.53
69364;BMP280;56526;55.406;86.130;2022-09-09T05:51:42;98870.69;;;19.74
69364;BMP280;56526;55.406;86.130;2022-09-09T05:54:09;98876.94;;;19.92
69364;BMP280;56526;55.406;86.130;2022-09-09T05:56:35;98862.06;;;20.02
69364;BMP280;56526;55.406;86.130;2022-09-09T05:59:01;98874.72;;;19.98
69364;BMP280;56526;55.406;86.130;2022-09-09T06:01:30;98872.34;;;19.86
69364;BMP280;56526;55.406;86.130;2022-09-09T06:03:58;98867.53;;;19.65
69364;BMP280;56526;55.406;86.130;2022-09-09T06:06:26;98869.81;;;19.59
69364;BMP280;56526;55.406;86.130;2022-09-09T06:08:58;98862.72;;;19.41
69364;BMP280;56526;55.406;86.130;2022-09-09T06:11:26;98853.38;;;19.24
69364;BMP280;56526;55.406;86.130;2022-09-09T06:13:54;98862.25;;;19.31
69364;BMP280;56526;55.406;86.130;2022-09-09T06:16:24;98863.88;;;19.40
69364;BMP280;56526;55.406;86.130;2022-09-09T06:18:53;98865.97;;;19.60
69364;BMP280;56526;55.406;86.130;2022-09-09T06:21:36;98861.66;;;19.52
69364;BMP280;56526;55.406;86.130;2022-09-09T06:24:04;98852.78;;;19.04
69364;BMP280;56526;55.406;86.130;2022-09-09T06:26:33;98862.88;;;18.84
69364;BMP280;56526;55.406;86.130;2022-09-09T06:29:02;98855.66;;;19.25
69364;BMP280;56526;55.406;86.130;2022-09-09T06:31:30;98855.13;;;19.94
69364;BMP280;56526;55.406;86.130;2022-09-09T06:33:58;98841.84;;;20.26
69364;BMP280;56526;55.406;86.130;2022-09-09T06:36:26;98830.81;;;20.41
69364;BMP280;56526;55.406;86.130;2022-09-09T06:38:54;98828.22;;;20.73
69364;BMP280;56526;55.406;86.130;2022-09-09T06:41:22;98834.81;;;20.90
69364;BMP280;56526;55.406;86.130;2022-09-09T06:43:50;98836.00;;;21.03
69364;BMP280;56526;55.406;86.130;2022-09-09T06:46:18;98848.91;;;20.55
69364;BMP280;56526;55.406;86.130;2022-09-09T06:48:45;98833.44;;;20.34
69364;BMP280;56526;55.406;86.130;2022-09-09T06:51:13;98830.34;;;20.25
69364;BMP280;56526;55.406;86.130;2022-09-09T06:53:42;98828.41;;;20.29
69364;BMP280;56526;55.406;86.130;2022-09-09T06:56:25;98834.22;;;20.38
69364;BMP280;56526;55.406;86.130;2022-09-09T06:58:53;98836.03;;;20.13
69364;BMP280;56526;55.406;86.130;2022-09-09T07:01:26;98835.09;;;19.36
69364;BMP280;56526;55.406;86.130;2022-09-09T07:03:54;98828.16;;;18.95
69364;BMP280;56526;55.406;86.130;2022-09-09T07:06:23;98829.25;;;18.57
69364;BMP280;56526;55.406;86.130;2022-09-09T07:09:10;98831.28;;;18.67
69364;BMP280;56526;55.406;86.130;2022-09-09T07:11:43;98827.03;;;18.63
69364;BMP280;56526;55.406;86.130;2022-09-09T07:14:13;98823.38;;;18.48
69364;BMP280;56526;55.406;86.130;2022-09-09T07:16:41;98826.63;;;18.31
69364;BMP280;56526;55.406;86.130;2022-09-09T07:19:08;98827.13;;;18.40
69364;BMP280;56526;55.406;86.130;2022-09-09T07:21:35;98822.06;;;18.35
69364;BMP280;56526;55.406;86.130;2022-09-09T07:24:01;98825.84;;;18.30
69364;BMP280;56526;55.406;86.130;2022-09-09T07:26:30;98824.44;;;18.13
69364;BMP280;56526;55.406;86.130;2022-09-09T07:28:56;98822.28;;;17.96
69364;BMP280;56526;55.406;86.130;2022-09-09T07:31:25;98829.28;;;17.78
69364;BMP280;56526;55.406;86.130;2022-09-09T07:33:56;98829.31;;;17.55
69364;BMP280;56526;55.406;86.130;2022-09-09T07:36:34;98830.50;;;17.35
69364;BMP280;56526;55.406;86.130;2022-09-09T07:39:08;98826.69;;;17.17
69364;BMP280;56526;55.406;86.130;2022-09-09T07:41:44;98829.38;;;17.17
69364;BMP280;56526;55.406;86.130;2022-09-09T07:44:19;98825.91;;;17.16
69364;BMP280;56526;55.406;86.130;2022-09-09T07:46:47;98827.13;;;17.19
69364;BMP280;56526;55.406;86.130;2022-09-09T07:49:14;98828.16;;;17.14
69364;BMP280;56526;55.406;86.130;2022-09-09T07:51:43;98818.75;;;17.20
69364;BMP280;56526;55.406;86.130;2022-09-09T07:54:13;98830.97;;;17.21
69364;BMP280;56526;55.406;86.130;2022-09-09T07:56:41;98830.56;;;17.19
69364;BMP280;56526;55.406;86.130;2022-09-09T07:59:09;98829.28;;;17.13
69364;BMP280;56526;55.406;86.130;2022-09-09T08:01:38;98829.66;;;17.11
69364;BMP280;56526;55.406;86.130;2022-09-09T08:04:11;98828.81;;;17.07
69364;BMP280;56526;55.406;86.130;2022-09-09T08:06:41;98833.00;;;17.05
69364;BMP280;56526;55.406;86.130;2022-09-09T08:09:09;98830.22;;;17.01
69364;BMP280;56526;55.406;86.130;2022-09-09T08:11:36;98842.00;;;16.97
69364;BMP280;56526;55.406;86.130;2022-09-09T08:14:03;98828.34;;;16.83
69364;BMP280;56526;55.406;86.130;2022-09-09T08:16:33;98843.44;;;16.75
69364;BMP280;56526;55.406;86.130;2022-09-09T08:19:01;98845.69;;;16.54
69364;BMP280;56526;55.406;86.130;2022-09-09T08:21:30;98845.47;;;16.62
69364;BMP280;56526;55.406;86.130;2022-09-09T08:23:59;98845.44;;;16.78
69364;BMP280;56526;55.406;86.130;2022-09-09T08:26:35;98848.22;;;16.85
69364;BMP280;56526;55.406;86.130;2022-09-09T08:29:07;98846.00;;;16.68
69364;BMP280;56526;55.406;86.130;2022-09-09T08:31:45;98856.13;;;16.59
69364;BMP280;56526;55.406;86.130;2022-09-09T08:34:16;98849.31;;;16.46
69364;BMP280;56526;55.406;86.130;2022-09-09T08:36:44;98852.97;;;16.37
69364;BMP280;56526;55.406;86.130;2022-09-09T08:39:14;98848.78;;;16.21
69364;BMP280;56526;55.406;86.130;2022-09-09T08:50:17;98833.13;;;16.38
69364;BMP280;56526;55.406;86.130;2022-09-09T08:52:53;98837.75;;;16.57
69364;BMP280;56526;55.406;86.130;2022-09-09T08:57:57;98831.56;;;16.72
69364;BMP280;56526;55.406;86.130;2022-09-09T09:00:32;98831.09;;;16.86
69364;BMP280;56526;55.406;86.130;2022-09-09T09:06:31;98828.34;;;16.83
69364;BMP280;56526;55.406;86.130;2022-09-09T09:09:18;98830.66;;;16.84
69364;BMP280;56526;55.406;86.130;2022-09-09T09:11:52;98839.59;;;16.72
69364;BMP280;56526;55.406;86.130;2022-09-09T09:14:25;98836.25;;;16.60
69364;BMP280;56526;55.406;86.130;2022-09-09T09:19:28;98833.78;;;16.51
69364;BMP280;56526;55.406;86.130;2022-09-09T09:25:04;98840.47;;;16.61
69364;BMP280;56526;55.406;86.130;2022-09-09T09:30:49;98838.84;;;16.56
69364;BMP280;56526;55.406;86.130;2022-09-09T09:36:14;98842.38;;;16.25
69364;BMP280;56526;55.406;86.130;2022-09-09T09:38:53;98849.72;;;16.13
69364;BMP280;56526;55.406;86.130;2022-09-09T09:41:42;98845.75;;;16.07
69364;BMP280;56526;55.406;86.130;2022-09-09T09:44:21;98839.81;;;16.13
69364;BMP280;56526;55.406;86.130;2022-09-09T09:46:50;98831.16;;;16.35
69364;BMP280;56526;55.406;86.130;2022-09-09T09:49:16;98835.91;;;16.42
69364;BMP280;56526;55.406;86.130;2022-09-09T09:51:43;98833.03;;;16.51
69364;BMP280;56526;55.406;86.130;2022-09-09T09:54:17;98832.63;;;16.49
69364;BMP280;56526;55.406;86.130;2022-09-09T09:56:49;98827.88;;;16.42
69364;BMP280;56526;55.406;86.130;2022-09-09T09:59:41;98830.69;;;16.49
69364;BMP280;56526;55.406;86.130;2022-09-09T10:02:22;98827.00;;;16.54
69364;BMP280;56526;55.406;86.130;2022-09-09T10:05:04;98822.53;;;16.42
69364;BMP280;56526;55.406;86.130;2022-09-09T10:07:39;98827.66;;;16.31
69364;BMP280;56526;55.406;86.130;2022-09-09T10:10:15;98829.53;;;16.31
69364;BMP280;56526;55.406;86.130;2022-09-09T10:12:59;98825.75;;;16.32
69364;BMP280;56526;55.406;86.130;2022-09-09T10:19:29;98826.38;;;16.45
69364;BMP280;56526;55.406;86.130;2022-09-09T10:22:31;98824.50;;;16.45
69364;BMP280;56526;55.406;86.130;2022-09-09T10:37:48;98819.44;;;16.40
69364;BMP280;56526;55.406;86.130;2022-09-09T10:43:20;98818.81;;;16.47
69364;BMP280;56526;55.406;86.130;2022-09-09T10:46:23;98815.69;;;16.45
69364;BMP280;56526;55.406;86.130;2022-09-09T10:57:40;98812.34;;;16.13
69364;BMP280;56526;55.406;86.130;2022-09-09T11:00:30;98812.88;;;16.02
69364;BMP280;56526;55.406;86.130;2022-09-09T11:03:03;98819.44;;;15.89
69364;BMP280;56526;55.406;86.130;2022-09-09T11:05:43;98820.63;;;15.76
69364;BMP280;56526;55.406;86.130;2022-09-09T11:08:39;98819.59;;;15.65
69364;BMP280;56526;55.406;86.130;2022-09-09T11:11:14;98816.16;;;15.64
69364;BMP280;56526;55.406;86.130;2022-09-09T11:13:49;98817.34;;;15.67
69364;BMP280;56526;55.406;86.130;2022-09-09T11:19:09;98826.22;;;15.87
69364;BMP280;56526;55.406;86.130;2022-09-09T11:27:27;98815.56;;;15.71
69364;BMP280;56526;55.406;86.130;2022-09-09T11:30:02;98810.03;;;15.64
69364;BMP280;56526;55.406;86.130;2022-09-09T11:33:03;98811.75;;;15.56
69364;BMP280;56526;55.406;86.130;2022-09-09T11:35:53;98808.38;;;15.59
69364;BMP280;56526;55.406;86.130;2022-09-09T11:39:07;98812.63;;;15.76
69364;BMP280;56526;55.406;86.130;2022-09-09T11:41:41;98810.81;;;15.80
69364;BMP280;56526;55.406;86.130;2022-09-09T11:44:19;98816.84;;;15.77
69364;BMP280;56526;55.406;86.130;2022-09-09T11:46:52;98814.31;;;15.68
69364;BMP280;56526;55.406;86.130;2022-09-09T11:49:42;98812.44;;;15.53
69364;BMP280;56526;55.406;86.130;2022-09-09T11:52:19;98817.50;;;15.43
69364;BMP280;56526;55.406;86.130;2022-09-09T11:54:49;98814.16;;;15.46
69364;BMP280;56526;55.406;86.130;2022-09-09T11:59:56;98823.22;;;15.73
69364;BMP280;56526;55.406;86.130;2022-09-09T12:02:25;98823.81;;;15.66
69364;BMP280;56526;55.406;86.130;2022-09-09T12:07:34;98816.19;;;15.37
69364;BMP280;56526;55.406;86.130;2022-09-09T12:10:28;98819.28;;;15.23
69364;BMP280;56526;55.406;86.130;2022-09-09T12:13:25;98826.28;;;15.15
69364;BMP280;56526;55.406;86.130;2022-09-09T12:15:54;98831.88;;;15.10
69364;BMP280;56526;55.406;86.130;2022-09-09T12:18:36;98850.78;;;15.05
69364;BMP280;56526;55.406;86.130;2022-09-09T12:24:06;98842.94;;;14.72
69364;BMP280;56526;55.406;86.130;2022-09-09T12:26:54;98842.63;;;14.62
69364;BMP280;56526;55.406;86.130;2022-09-09T12:29:38;98840.69;;;14.46
69364;BMP280;56526;55.406;86.130;2022-09-09T12:32:34;98837.91;;;14.18
69364;BMP280;56526;55.406;86.130;2022-09-09T12:35:11;98824.22;;;13.96
69364;BMP280;56526;55.406;86.130;2022-09-09T12:37:48;98833.50;;;13.77
69364;BMP280;56526;55.406;86.130;2022-09-09T12:40:23;98827.72;;;13.63
69364;BMP280;56526;55.406;86.130;2022-09-09T12:42:52;98831.59;;;13.53
69364;BMP280;56526;55.406;86.130;2022-09-09T12:45:21;98830.88;;;13.44
69364;BMP280;56526;55.406;86.130;2022-09-09T12:48:08;98827.88;;;13.34
69364;BMP280;56526;55.406;86.130;2022-09-09T12:50:38;98836.22;;;13.24
69364;BMP280;56526;55.406;86.130;2022-09-09T12:53:29;98840.84;;;13.14
69364;BMP280;56526;55.406;86.130;2022-09-09T12:56:03;98840.56;;;13.07
69364;BMP280;56526;55.406;86.130;2022-09-09T12:58:32;98828.91;;;13.00
69364;BMP280;56526;55.406;86.130;2022-09-09T13:01:02;98836.00;;;12.96
69364;BMP280;56526;55.406;86.130;2022-09-09T13:03:30;98836.31;;;12.94
69364;BMP280;56526;55.406;86.130;2022-09-09T13:06:09;98834.16;;;12.88
69364;BMP280;56526;55.406;86.130;2022-09-09T13:08:37;98828.38;;;12.85
69364;BMP280;56526;55.406;86.130;2022-09-09T13:11:10;98832.94;;;12.85
69364;BMP280;56526;55.406;86.130;2022-09-09T13:13:41;98824.53;;;12.83
69364;BMP280;56526;55.406;86.130;2022-09-09T13:16:40;98822.50;;;12.80
69364;BMP280;56526;55.406;86.130;2022-09-09T13:19:08;98822.38;;;12.76
69364;BMP280;56526;55.406;86.130;2022-09-09T13:21:39;98825.19;;;12.71
69364;BMP280;56526;55.406;86.130;2022-09-09T13:24:21;98823.84;;;12.65
69364;BMP280;56526;55.406;86.130;2022-09-09T13:26:56;98824.16;;;12.64
69364;BMP280;56526;55.406;86.130;2022-09-09T13:29:23;98822.16;;;12.61
69364;BMP280;56526;55.406;86.130;2022-09-09T13:31:50;98825.13;;;12.59
69364;BMP280;56526;55.406;86.130;2022-09-09T13:34:30;98826.53;;;12.57
69364;BMP280;56526;55.406;86.130;2022-09-09T13:37:22;98828.41;;;12.56
69364;BMP280;56526;55.406;86.130;2022-09-09T13:40:05;98833.56;;;12.52
69364;BMP280;56526;55.406;86.130;2022-09-09T13:42:35;98833.56;;;12.52
69364;BMP280;56526;55.406;86.130;2022-09-09T13:45:05;98838.75;;;12.49
69364;BMP280;56526;55.406;86.130;2022-09-09T13:47:41;98839.41;;;12.46
69364;BMP280;56526;55.406;86.130;2022-09-09T13:50:20;98836.28;;;12.44
69364;BMP280;56526;55.406;86.130;2022-09-09T13:52:49;98843.34;;;12.40
69364;BMP280;56526;55.406;86.130;2022-09-09T13:55:23;98846.78;;;12.32
69364;BMP280;56526;55.406;86.130;2022-09-09T13:57:58;98838.25;;;12.26
69364;BMP280;56526;55.406;86.130;2022-09-09T14:00:28;98849.78;;;12.22
69364;BMP280;56526;55.406;86.130;2022-09-09T14:02:56;98850.13;;;12.20
69364;BMP280;56526;55.406;86.130;2022-09-09T14:05:25;98845.47;;;12.17
69364;BMP280;56526;55.406;86.130;2022-09-09T14:07:55;98847.19;;;12.13
69364;BMP280;56526;55.406;86.130;2022-09-09T14:10:27;98845.16;;;12.10
69364;BMP280;56526;55.406;86.130;2022-09-09T14:12:53;98853.44;;;12.08
69364;BMP280;56526;55.406;86.130;2022-09-09T14:15:20;98846.41;;;12.04
69364;BMP280;56526;55.406;86.130;2022-09-09T14:17:47;98853.44;;;12.00
69364;BMP280;56526;55.406;86.130;2022-09-09T14:20:14;98857.06;;;11.95
69364;BMP280;56526;55.406;86.130;2022-09-09T14:22:41;98852.56;;;11.96
69364;BMP280;56526;55.406;86.130;2022-09-09T14:25:08;98849.13;;;11.95
69364;BMP280;56526;55.406;86.130;2022-09-09T14:27:45;98855.97;;;11.96
69364;BMP280;56526;55.406;86.130;2022-09-09T14:30:29;98856.75;;;11.97
69364;BMP280;56526;55.406;86.130;2022-09-09T14:32:56;98863.94;;;11.96
69364;BMP280;56526;55.406;86.130;2022-09-09T14:35:26;98849.59;;;11.97
69364;BMP280;56526;55.406;86.130;2022-09-09T14:37:52;98859.88;;;11.99
69364;BMP280;56526;55.406;86.130;2022-09-09T14:40:19;98856.44;;;11.98
69364;BMP280;56526;55.406;86.130;2022-09-09T14:42:45;98862.38;;;11.95
69364;BMP280;56526;55.406;86.130;2022-09-09T14:45:11;98869.72;;;11.90
69364;BMP280;56526;55.406;86.130;2022-09-09T14:47:37;98864.41;;;11.81
69364;BMP280;56526;55.406;86.130;2022-09-09T14:50:20;98864.91;;;11.74
69364;BMP280;56526;55.406;86.130;2022-09-09T14:52:47;98862.75;;;11.68
69364;BMP280;56526;55.406;86.130;2022-09-09T14:55:13;98868.16;;;11.63
69364;BMP280;56526;55.406;86.130;2022-09-09T14:57:49;98865.72;;;11.58
69364;BMP280;56526;55.406;86.130;2022-09-09T15:00:16;98870.22;;;11.57
69364;BMP280;56526;55.406;86.130;2022-09-09T15:02:47;98868.63;;;11.56
69364;BMP280;56526;55.406;86.130;2022-09-09T15:05:14;98867.09;;;11.55
69364;BMP280;56526;55.406;86.130;2022-09-09T15:07:40;98873.16;;;11.56
69364;BMP280;56526;55.406;86.130;2022-09-09T15:10:07;98873.94;;;11.56
69364;BMP280;56526;55.406;86.130;2022-09-09T15:12:33;98872.09;;;11.57
69364;BMP280;56526;55.406;86.130;2022-09-09T15:15:00;98865.53;;;11.54
69364;BMP280;56526;55.406;86.130;2022-09-09T15:17:26;98874.28;;;11.55
69364;BMP280;56526;55.406;86.130;2022-09-09T15:19:53;98871.94;;;11.53
69364;BMP280;56526;55.406;86.130;2022-09-09T15:22:19;98868.50;;;11.53
69364;BMP280;56526;55.406;86.130;2022-09-09T15:24:50;98871.94;;;11.53
69364;BMP280;56526;55.406;86.130;2022-09-09T15:27:17;98866.63;;;11.53
69364;BMP280;56526;55.406;86.130;2022-09-09T15:29:43;98874.59;;;11.53
69364;BMP280;56526;55.406;86.130;2022-09-09T15:32:10;98868.19;;;11.54
69364;BMP280;56526;55.406;86.130;2022-09-09T15:34:36;98866.63;;;11.53
69364;BMP280;56526;55.406;86.130;2022-09-09T15:37:02;98853.69;;;11.52
69364;BMP280;56526;55.406;86.130;2022-09-09T15:39:28;98858.22;;;11.51
69364;BMP280;56526;55.406;86.130;2022-09-09T15:41:55;98863.06;;;11.49
69364;BMP280;56526;55.406;86.130;2022-09-09T15:44:22;98862.63;;;11.47
69364;BMP280;56526;55.406;86.130;2022-09-09T15:46:52;98859.78;;;11.43
69364;BMP280;56526;55.406;86.130;2022-09-09T15:49:21;98858.88;;;11.39
69364;BMP280;56526;55.406;86.130;2022-09-09T15:51:59;98858.09;;;11.39
69364;BMP280;56526;55.406;86.130;2022-09-09T15:54:26;98856.81;;;11.36
69364;BMP280;56526;55.406;86.130;2022-09-09T15:56:55;98863.50;;;11.34
69364;BMP280;56526;55.406;86.130;2022-09-09T15:59:24;98854.66;;;11.30
69364;BMP280;56526;55.406;86.130;2022-09-09T16:01:53;98860.53;;;11.27
69364;BMP280;56526;55.406;86.130;2022-09-09T16:04:19;98850.59;;;11.24
69364;BMP280;56526;55.406;86.130;2022-09-09T16:06:46;98855.72;;;11.20
69364;BMP280;56526;55.406;86.130;2022-09-09T16:09:13;98848.41;;;11.17
69364;BMP280;56526;55.406;86.130;2022-09-09T16:11:39;98847.47;;;11.13
69364;BMP280;56526;55.406;86.130;2022-09-09T16:14:05;98848.41;;;11.08
69364;BMP280;56526;55.406;86.130;2022-09-09T16:16:32;98838.72;;;11.04